Time;durP1;ratioP1;P1;durP2;ratioP2;P2;SDS_P1;SDS_P2;PMS_P1;PMS_P2;Temp;Humidity;BMP_temperature;BMP_pressure;BME280_temperature;BME280_humidity;BME280_pressure;Samples;Min_cycle;Max_cycle;Signal;HPM_P1;HPM_P2
2022/08/13 00:02:17;;;;;;;;;;;22.50;36.50;;;;;;4938856;29;19919;-86
2022/08/13 00:04:58;;;;;;;;;;;22.50;36.50;;;;;;4939103;29;20014;-86
2022/08/13 00:07:24;;;;;;;;;;;22.50;36.70;;;;;;4932021;29;20316;-86
2022/08/13 00:09:50;;;;;;;;;;;22.40;36.70;;;;;;4938125;29;19966;-85
2022/08/13 00:15:09;;;;;;;;;;;22.30;36.70;;;;;;4939139;29;19926;-86
2022/08/13 00:17:34;;;;;;;;;;;22.30;36.80;;;;;;4938335;29;19919;-86
2022/08/13 00:20:00;;;;;;;;;;;22.20;36.80;;;;;;4922408;29;19919;-85
2022/08/13 00:22:26;;;;;;;;;;;22.20;37.00;;;;;;4921839;29;19919;-85
2022/08/13 00:24:52;;;;;;;;;;;22.10;37.00;;;;;;4921755;29;20005;-86
2022/08/13 00:27:17;;;;;;;;;;;22.10;36.90;;;;;;4939104;29;19911;-85
2022/08/13 00:29:43;;;;;;;;;;;22.10;37.00;;;;;;4922018;29;20364;-86
2022/08/13 00:32:13;;;;;;;;;;;22.00;37.00;;;;;;4922721;29;19917;-86
2022/08/13 00:34:38;;;;;;;;;;;22.00;37.00;;;;;;4922179;29;19958;-86
2022/08/13 00:37:04;;;;;;;;;;;21.90;37.10;;;;;;4938629;29;20614;-85
2022/08/13 00:39:29;;;;;;;;;;;21.90;37.30;;;;;;4938330;29;20367;-85
2022/08/13 00:41:55;;;;;;;;;;;21.80;37.30;;;;;;4937998;29;19930;-85
2022/08/13 00:44:20;;;;;;;;;;;21.80;37.70;;;;;;4920260;29;19927;-85
2022/08/13 00:46:46;;;;;;;;;;;21.80;37.80;;;;;;4920159;29;19977;-84
2022/08/13 00:49:13;;;;;;;;;;;21.70;38.00;;;;;;4934540;29;19919;-85
2022/08/13 00:51:38;;;;;;;;;;;21.70;38.20;;;;;;4932318;29;19921;-84
2022/08/13 00:54:05;;;;;;;;;;;21.60;38.30;;;;;;4937114;29;20307;-85
2022/08/13 00:56:33;;;;;;;;;;;21.60;38.30;;;;;;4936346;29;19922;-85
2022/08/13 00:58:59;;;;;;;;;;;21.50;38.50;;;;;;4936323;29;19919;-84
2022/08/13 01:01:25;;;;;;;;;;;21.50;38.70;;;;;;4935125;29;20050;-84
2022/08/13 01:03:51;;;;;;;;;;;21.40;38.70;;;;;;4936291;29;19989;-85
2022/08/13 01:06:18;;;;;;;;;;;21.40;39.20;;;;;;4936290;29;19997;-85
2022/08/13 01:08:43;;;;;;;;;;;21.30;39.10;;;;;;4920999;29;19918;-85
2022/08/13 01:11:11;;;;;;;;;;;21.30;39.00;;;;;;4921096;29;20587;-85
2022/08/13 01:13:38;;;;;;;;;;;21.30;39.10;;;;;;4938240;29;19918;-85
2022/08/13 01:16:06;;;;;;;;;;;21.30;39.00;;;;;;4920797;29;19922;-86
2022/08/13 01:18:40;;;;;;;;;;;21.20;39.00;;;;;;4921566;29;19919;-86
2022/08/13 01:21:10;;;;;;;;;;;21.20;39.20;;;;;;4938278;29;19923;-86
2022/08/13 01:23:36;;;;;;;;;;;21.10;39.10;;;;;;4926394;29;20338;-86
2022/08/13 01:26:02;;;;;;;;;;;21.00;39.10;;;;;;4918739;29;20264;-86
2022/08/13 01:28:28;;;;;;;;;;;21.00;39.20;;;;;;4923471;29;19997;-86
2022/08/13 01:30:55;;;;;;;;;;;21.00;39.40;;;;;;4936930;29;20361;-86
2022/08/13 01:33:22;;;;;;;;;;;20.90;39.50;;;;;;4920993;29;19911;-86
2022/08/13 01:35:48;;;;;;;;;;;20.80;39.50;;;;;;4938077;29;19914;-86
2022/08/13 01:38:14;;;;;;;;;;;20.80;39.50;;;;;;4936798;29;19914;-86
2022/08/13 01:40:40;;;;;;;;;;;20.80;39.60;;;;;;4921543;29;20011;-86
2022/08/13 01:43:05;;;;;;;;;;;20.80;39.50;;;;;;4936861;29;19999;-84
2022/08/13 01:45:31;;;;;;;;;;;20.70;39.70;;;;;;4937869;29;19922;-85
2022/08/13 01:50:41;;;;;;;;;;;20.70;40.00;;;;;;4937583;29;19925;-84
2022/08/13 01:53:11;;;;;;;;;;;20.60;40.10;;;;;;4937440;29;20017;-86
2022/08/13 01:55:39;;;;;;;;;;;20.50;40.10;;;;;;4919473;29;19973;-86
2022/08/13 01:58:17;;;;;;;;;;;20.50;40.10;;;;;;4934365;29;20708;-86
2022/08/13 02:00:44;;;;;;;;;;;20.50;40.10;;;;;;4918529;29;20338;-85
2022/08/13 02:03:11;;;;;;;;;;;20.40;40.20;;;;;;4935836;29;19915;-85
2022/08/13 02:05:38;;;;;;;;;;;20.40;40.20;;;;;;4919864;29;19925;-86
2022/08/13 02:08:05;;;;;;;;;;;20.40;40.60;;;;;;4936947;29;19937;-86
2022/08/13 02:10:31;;;;;;;;;;;20.30;41.10;;;;;;4936562;29;19919;-86
2022/08/13 02:12:57;;;;;;;;;;;20.30;41.60;;;;;;4919971;29;19950;-87
2022/08/13 02:15:22;;;;;;;;;;;20.30;42.00;;;;;;4934969;29;19962;-86
2022/08/13 02:17:48;;;;;;;;;;;20.20;41.80;;;;;;4936343;29;19978;-85
2022/08/13 02:20:17;;;;;;;;;;;20.20;41.90;;;;;;4937845;29;19917;-85
2022/08/13 02:22:46;;;;;;;;;;;20.20;42.10;;;;;;4928422;29;19974;-85
2022/08/13 02:25:13;;;;;;;;;;;20.20;41.90;;;;;;4928593;29;19937;-85
2022/08/13 02:27:40;;;;;;;;;;;20.10;41.80;;;;;;4934090;29;19926;-85
2022/08/13 02:30:09;;;;;;;;;;;20.10;41.80;;;;;;4936494;29;19919;-85
2022/08/13 02:32:35;;;;;;;;;;;20.00;41.90;;;;;;4919211;29;19918;-85
2022/08/13 02:35:01;;;;;;;;;;;20.00;41.90;;;;;;4917598;29;19914;-85
2022/08/13 02:37:28;;;;;;;;;;;20.00;42.20;;;;;;4929573;29;19919;-85
2022/08/13 02:39:53;;;;;;;;;;;20.00;42.20;;;;;;4935085;29;19970;-85
2022/08/13 02:42:22;;;;;;;;;;;19.90;42.20;;;;;;4933982;29;19942;-85
2022/08/13 02:44:49;;;;;;;;;;;19.90;42.50;;;;;;4917949;29;19942;-85
2022/08/13 02:47:15;;;;;;;;;;;19.80;42.40;;;;;;4933547;29;20332;-85
2022/08/13 02:49:41;;;;;;;;;;;19.80;42.30;;;;;;4934734;29;19915;-85
2022/08/13 02:52:09;;;;;;;;;;;19.80;42.30;;;;;;4918428;29;19929;-85
2022/08/13 02:54:42;;;;;;;;;;;19.80;42.40;;;;;;4917752;29;19915;-85
2022/08/13 02:57:08;;;;;;;;;;;19.80;42.70;;;;;;4917636;29;19919;-85
2022/08/13 02:59:34;;;;;;;;;;;19.70;42.70;;;;;;4917791;29;20010;-85
2022/08/13 03:02:00;;;;;;;;;;;19.70;42.70;;;;;;4935264;29;20391;-85
2022/08/13 03:04:25;;;;;;;;;;;19.70;42.70;;;;;;4934647;29;20443;-85
2022/08/13 03:06:51;;;;;;;;;;;19.70;42.80;;;;;;4933303;29;19959;-85
2022/08/13 03:09:19;;;;;;;;;;;19.70;42.80;;;;;;4914842;29;19967;-85
2022/08/13 03:11:44;;;;;;;;;;;19.70;42.90;;;;;;4935293;29;19919;-85
2022/08/13 03:14:11;;;;;;;;;;;19.60;42.90;;;;;;4934718;29;20270;-85
2022/08/13 03:16:39;;;;;;;;;;;19.60;42.90;;;;;;4933774;29;19923;-85
2022/08/13 03:19:05;;;;;;;;;;;19.60;43.00;;;;;;4931885;29;19915;-85
2022/08/13 03:21:35;;;;;;;;;;;19.50;43.00;;;;;;4933837;29;20010;-85
2022/08/13 03:24:03;;;;;;;;;;;19.50;43.10;;;;;;4929271;29;19926;-86
2022/08/13 03:26:30;;;;;;;;;;;19.40;43.20;;;;;;4937590;29;20001;-85
2022/08/13 03:28:56;;;;;;;;;;;19.40;43.20;;;;;;4932615;29;20281;-84
2022/08/13 03:31:23;;;;;;;;;;;19.40;43.20;;;;;;4930320;29;19929;-86
2022/08/13 03:33:50;;;;;;;;;;;19.40;43.40;;;;;;4931460;29;19915;-86
2022/08/13 03:36:15;;;;;;;;;;;19.30;43.40;;;;;;4935601;29;19919;-86
2022/08/13 03:38:43;;;;;;;;;;;19.40;44.10;;;;;;4920687;29;22569;-86
2022/08/13 03:41:11;;;;;;;;;;;19.30;44.10;;;;;;4936798;29;20026;-86
2022/08/13 03:43:42;;;;;;;;;;;19.30;44.10;;;;;;4937910;29;20009;-85
2022/08/13 03:46:16;;;;;;;;;;;19.30;44.20;;;;;;4937174;29;19919;-86
2022/08/13 03:48:43;;;;;;;;;;;19.20;44.50;;;;;;4937874;29;19915;-86
2022/08/13 03:51:08;;;;;;;;;;;19.20;44.80;;;;;;4939048;29;19963;-86
2022/08/13 03:53:35;;;;;;;;;;;19.20;44.80;;;;;;4937857;29;19914;-86
2022/08/13 03:56:01;;;;;;;;;;;19.20;44.70;;;;;;4920543;29;19969;-85
2022/08/13 03:58:26;;;;;;;;;;;19.10;44.70;;;;;;4937598;29;19950;-85
2022/08/13 04:00:52;;;;;;;;;;;19.10;44.80;;;;;;4938595;29;19938;-85
2022/08/13 04:03:22;;;;;;;;;;;19.00;45.00;;;;;;4938642;29;20053;-85
2022/08/13 04:05:49;;;;;;;;;;;19.10;44.80;;;;;;4938568;29;19950;-85
2022/08/13 04:08:15;;;;;;;;;;;19.10;44.90;;;;;;4921907;29;19962;-85
2022/08/13 04:10:41;;;;;;;;;;;19.10;45.10;;;;;;4938689;29;19919;-85
2022/08/13 04:13:11;;;;;;;;;;;19.10;44.90;;;;;;4938271;29;19929;-85
2022/08/13 04:15:37;;;;;;;;;;;19.00;44.90;;;;;;4921106;29;19915;-85
2022/08/13 04:18:03;;;;;;;;;;;19.10;45.10;;;;;;4938594;29;19925;-85
2022/08/13 04:20:30;;;;;;;;;;;19.10;45.60;;;;;;4921205;29;20260;-85
2022/08/13 04:22:56;;;;;;;;;;;19.20;45.70;;;;;;4941360;29;20390;-85
2022/08/13 04:25:23;;;;;;;;;;;19.20;46.10;;;;;;4921505;29;19911;-85
2022/08/13 04:27:49;;;;;;;;;;;19.30;46.30;;;;;;4937110;29;19911;-86
2022/08/13 04:30:16;;;;;;;;;;;19.50;46.30;;;;;;4938322;29;19911;-85
2022/08/13 04:32:42;;;;;;;;;;;19.70;46.70;;;;;;4938197;29;19918;-86
2022/08/13 04:35:08;;;;;;;;;;;19.90;46.80;;;;;;4938147;29;19942;-85
2022/08/13 04:37:33;;;;;;;;;;;20.20;46.90;;;;;;4934098;29;20035;-85
2022/08/13 04:39:59;;;;;;;;;;;20.40;47.00;;;;;;4905616;29;19959;-86
2022/08/13 04:42:24;;;;;;;;;;;20.70;47.00;;;;;;4906794;29;19930;-86
2022/08/13 04:44:50;;;;;;;;;;;20.80;46.80;;;;;;4922913;29;19911;-86
2022/08/13 04:47:16;;;;;;;;;;;21.10;46.70;;;;;;4923797;29;19930;-86
2022/08/13 04:49:42;;;;;;;;;;;21.30;46.80;;;;;;4923193;29;19937;-86
2022/08/13 04:52:07;;;;;;;;;;;21.60;46.90;;;;;;4918047;29;20497;-86
2022/08/13 04:54:34;;;;;;;;;;;22.00;46.90;;;;;;4924084;29;20734;-86
2022/08/13 04:56:59;;;;;;;;;;;22.40;46.60;;;;;;4917319;29;19922;-85
2022/08/13 04:59:25;;;;;;;;;;;22.70;46.30;;;;;;4929617;29;19952;-87
2022/08/13 05:01:50;;;;;;;;;;;23.10;45.90;;;;;;4936936;29;19946;-86
2022/08/13 05:04:17;;;;;;;;;;;23.50;45.40;;;;;;4932601;29;19919;-86
2022/08/13 05:06:43;;;;;;;;;;;23.90;45.00;;;;;;4919356;29;19923;-87
2022/08/13 05:09:08;;;;;;;;;;;24.30;44.50;;;;;;4935861;29;19915;-86
2022/08/13 05:11:34;;;;;;;;;;;24.70;43.90;;;;;;4935610;29;19946;-86
2022/08/13 05:13:59;;;;;;;;;;;25.20;43.40;;;;;;4936952;29;19970;-85
2022/08/13 05:16:25;;;;;;;;;;;25.50;42.90;;;;;;4934288;29;19930;-86
2022/08/13 05:18:52;;;;;;;;;;;26.00;42.40;;;;;;4919616;29;19918;-86
2022/08/13 05:21:20;;;;;;;;;;;26.40;41.90;;;;;;4935378;29;19974;-87
2022/08/13 05:23:46;;;;;;;;;;;26.80;41.40;;;;;;4919592;29;19923;-86
2022/08/13 05:26:11;;;;;;;;;;;27.30;40.70;;;;;;4929239;29;19926;-86
2022/08/13 05:28:37;;;;;;;;;;;27.70;40.10;;;;;;4919428;29;19915;-85
2022/08/13 05:31:03;;;;;;;;;;;28.10;39.80;;;;;;4919234;29;19919;-87
2022/08/13 05:33:29;;;;;;;;;;;28.50;39.30;;;;;;4933858;29;19955;-86
2022/08/13 05:35:57;;;;;;;;;;;29.00;38.40;;;;;;4921338;29;19930;-86
2022/08/13 05:38:23;;;;;;;;;;;29.50;37.90;;;;;;4936688;29;19922;-86
2022/08/13 05:40:50;;;;;;;;;;;30.00;37.20;;;;;;4933572;29;19953;-86
2022/08/13 05:43:17;;;;;;;;;;;30.40;36.20;;;;;;4916845;29;19994;-86
2022/08/13 05:45:43;;;;;;;;;;;30.80;35.40;;;;;;4929388;29;20291;-85
2022/08/13 05:48:09;;;;;;;;;;;31.20;35.00;;;;;;4929044;29;19915;-86
2022/08/13 05:50:35;;;;;;;;;;;31.60;34.40;;;;;;4934518;29;19923;-86
2022/08/13 05:53:08;;;;;;;;;;;32.00;33.60;;;;;;4933956;29;19915;-85
2022/08/13 05:55:34;;;;;;;;;;;32.40;32.90;;;;;;4930003;29;19991;-83
2022/08/13 05:57:59;;;;;;;;;;;32.80;32.60;;;;;;4916924;29;19918;-85
2022/08/13 06:06:14;;;;;;;;;;;34.00;30.10;;;;;;4932704;29;19926;-84
2022/08/13 06:08:41;;;;;;;;;;;34.40;29.30;;;;;;4912709;29;19914;-84
2022/08/13 06:11:11;;;;;;;;;;;34.70;28.60;;;;;;4931630;29;20357;-84
2022/08/13 06:13:38;;;;;;;;;;;35.10;28.10;;;;;;4924188;29;19915;-84
2022/08/13 06:16:05;;;;;;;;;;;35.30;27.70;;;;;;4913214;29;20402;-84
2022/08/13 06:18:32;;;;;;;;;;;35.80;27.50;;;;;;4935510;29;20372;-85
2022/08/13 06:20:59;;;;;;;;;;;36.10;27.50;;;;;;4932150;29;19927;-85
2022/08/13 06:23:25;;;;;;;;;;;36.50;27.30;;;;;;4916534;29;20391;-85
2022/08/13 06:25:52;;;;;;;;;;;36.80;26.60;;;;;;4918098;29;20018;-84
2022/08/13 06:28:19;;;;;;;;;;;37.20;26.10;;;;;;4933271;29;19922;-84
2022/08/13 06:30:45;;;;;;;;;;;37.60;25.70;;;;;;4933924;29;20274;-85
2022/08/13 06:33:11;;;;;;;;;;;38.00;25.00;;;;;;4934399;29;19997;-86
2022/08/13 06:35:36;;;;;;;;;;;38.30;24.80;;;;;;4935189;29;19922;-86
2022/08/13 06:38:04;;;;;;;;;;;38.70;24.30;;;;;;4935234;29;19926;-86
2022/08/13 06:40:35;;;;;;;;;;;38.90;23.90;;;;;;4918290;29;20027;-86
2022/08/13 06:43:01;;;;;;;;;;;39.20;23.60;;;;;;4932866;29;20396;-86
2022/08/13 06:45:26;;;;;;;;;;;39.40;23.20;;;;;;4928152;29;19927;-86
2022/08/13 06:47:52;;;;;;;;;;;39.70;23.00;;;;;;4934651;29;19922;-86
2022/08/13 06:50:18;;;;;;;;;;;40.00;22.60;;;;;;4935488;29;19934;-85
2022/08/13 06:52:43;;;;;;;;;;;40.30;22.20;;;;;;4919008;29;19926;-86
2022/08/13 06:55:08;;;;;;;;;;;40.70;22.00;;;;;;4933808;29;20362;-85
2022/08/13 06:57:37;;;;;;;;;;;41.10;21.40;;;;;;4932161;29;20368;-86
2022/08/13 07:00:06;;;;;;;;;;;41.40;20.80;;;;;;4935330;29;20389;-86
2022/08/13 07:02:34;;;;;;;;;;;41.60;20.70;;;;;;4937843;29;20323;-86
2022/08/13 07:04:59;;;;;;;;;;;41.80;20.60;;;;;;4920060;29;19922;-87
2022/08/13 07:07:25;;;;;;;;;;;42.10;20.20;;;;;;4923105;29;19918;-86
2022/08/13 07:09:51;;;;;;;;;;;42.30;20.10;;;;;;4936334;29;19973;-87
2022/08/13 07:12:17;;;;;;;;;;;42.50;19.80;;;;;;4921719;29;20367;-87
2022/08/13 07:14:43;;;;;;;;;;;42.80;19.80;;;;;;4935569;29;20260;-87
2022/08/13 07:17:10;;;;;;;;;;;43.10;19.50;;;;;;4934735;29;20383;-86
2022/08/13 07:19:37;;;;;;;;;;;43.30;19.40;;;;;;4938062;29;20288;-87
2022/08/13 07:22:03;;;;;;;;;;;43.70;19.20;;;;;;4938117;29;19923;-86
2022/08/13 07:24:28;;;;;;;;;;;44.00;18.90;;;;;;4921653;29;19986;-86
2022/08/13 07:26:59;;;;;;;;;;;44.40;18.70;;;;;;4936348;29;19975;-86
2022/08/13 07:29:26;;;;;;;;;;;44.70;18.40;;;;;;4935310;29;19923;-86
2022/08/13 07:31:53;;;;;;;;;;;45.00;18.30;;;;;;4931190;29;19919;-86
2022/08/13 07:34:19;;;;;;;;;;;45.30;18.00;;;;;;4919727;29;20376;-86
2022/08/13 07:36:44;;;;;;;;;;;45.70;17.70;;;;;;4935766;29;19929;-87
2022/08/13 07:39:11;;;;;;;;;;;45.80;17.30;;;;;;4920789;29;19961;-87
2022/08/13 07:41:42;;;;;;;;;;;46.00;17.20;;;;;;4937104;29;19934;-87
2022/08/13 07:44:10;;;;;;;;;;;46.30;16.70;;;;;;4937557;29;19915;-89
2022/08/13 07:46:42;;;;;;;;;;;46.60;16.50;;;;;;4913016;29;19930;-88
2022/08/13 07:49:09;;;;;;;;;;;46.80;16.50;;;;;;4939857;29;19933;-86
2022/08/13 07:51:37;;;;;;;;;;;47.00;16.00;;;;;;4929673;29;20308;-86
2022/08/13 07:54:05;;;;;;;;;;;47.20;16.20;;;;;;4935487;29;19914;-87
2022/08/13 07:56:32;;;;;;;;;;;47.40;16.20;;;;;;4919938;29;19919;-87
2022/08/13 07:59:06;;;;;;;;;;;47.70;16.20;;;;;;4938111;29;20009;-87
2022/08/13 08:01:34;;;;;;;;;;;48.00;16.20;;;;;;4937570;29;20367;-87
2022/08/13 08:04:02;;;;;;;;;;;48.20;15.80;;;;;;4939034;29;20446;-87
2022/08/13 08:06:29;;;;;;;;;;;48.20;15.70;;;;;;4940111;29;20009;-87
2022/08/13 08:08:54;;;;;;;;;;;48.40;15.70;;;;;;4938387;29;19930;-88
2022/08/13 08:14:05;;;;;;;;;;;48.70;14.60;;;;;;4933864;29;19926;-87
2022/08/13 08:16:36;;;;;;;;;;;48.60;14.50;;;;;;4930339;29;19919;-87
2022/08/13 08:19:01;;;;;;;;;;;48.60;14.50;;;;;;4935192;29;19921;-87
2022/08/13 08:21:27;;;;;;;;;;;48.50;14.40;;;;;;4936371;29;19926;-87
2022/08/13 08:23:57;;;;;;;;;;;48.30;14.40;;;;;;4937330;29;20384;-87
2022/08/13 08:26:25;;;;;;;;;;;48.30;14.30;;;;;;4934238;29;19966;-87
2022/08/13 08:28:51;;;;;;;;;;;48.40;14.40;;;;;;4920143;29;20009;-86
2022/08/13 08:31:17;;;;;;;;;;;48.60;14.20;;;;;;4937755;29;20303;-87
2022/08/13 08:33:43;;;;;;;;;;;48.70;14.40;;;;;;4937585;29;19921;-87
2022/08/13 08:36:09;;;;;;;;;;;48.80;14.40;;;;;;4937943;29;19923;-86
2022/08/13 08:44:12;;;;;;;;;;;49.20;14.40;;;;;;4936585;29;19922;-87
2022/08/13 08:46:39;;;;;;;;;;;49.20;14.10;;;;;;4917544;29;20295;-87
2022/08/13 08:49:06;;;;;;;;;;;49.30;14.00;;;;;;4931386;29;20652;-86
2022/08/13 08:51:32;;;;;;;;;;;49.30;14.20;;;;;;4951247;29;19973;-88
2022/08/13 08:53:58;;;;;;;;;;;49.50;14.20;;;;;;4918316;29;20605;-87
2022/08/13 08:56:24;;;;;;;;;;;49.80;14.00;;;;;;4918477;29;20005;-86
2022/08/13 08:58:54;;;;;;;;;;;50.10;13.70;;;;;;4932048;29;19918;-88
2022/08/13 09:01:24;;;;;;;;;;;50.20;13.30;;;;;;4921761;29;20025;-87
2022/08/13 09:03:56;;;;;;;;;;;50.20;13.30;;;;;;4933681;29;19919;-86
2022/08/13 09:06:23;;;;;;;;;;;50.30;13.70;;;;;;4933081;29;19997;-87
2022/08/13 09:08:52;;;;;;;;;;;50.50;13.50;;;;;;4918055;29;19926;-87
2022/08/13 09:11:19;;;;;;;;;;;50.50;13.40;;;;;;4933173;29;20629;-87
2022/08/13 09:13:47;;;;;;;;;;;50.70;13.30;;;;;;4916272;29;19922;-87
2022/08/13 09:16:13;;;;;;;;;;;50.80;13.50;;;;;;4935004;29;19938;-86
2022/08/13 09:18:39;;;;;;;;;;;51.00;13.30;;;;;;4918805;29;19914;-85
2022/08/13 09:21:06;;;;;;;;;;;51.10;12.90;;;;;;4933337;29;20497;-86
2022/08/13 09:23:34;;;;;;;;;;;50.70;13.00;;;;;;4934038;29;19923;-86
2022/08/13 09:25:59;;;;;;;;;;;50.30;12.90;;;;;;4934089;29;19934;-87
2022/08/13 09:28:26;;;;;;;;;;;50.10;13.10;;;;;;4918298;29;20271;-87
2022/08/13 09:30:52;;;;;;;;;;;50.20;13.20;;;;;;4934936;29;20015;-87
2022/08/13 09:33:23;;;;;;;;;;;50.40;13.30;;;;;;4918258;29;19937;-88
2022/08/13 09:35:54;;;;;;;;;;;50.60;12.90;;;;;;4936297;29;20279;-87
2022/08/13 09:38:23;;;;;;;;;;;50.20;12.80;;;;;;4935763;29;19915;-88
2022/08/13 09:40:54;;;;;;;;;;;49.80;13.00;;;;;;4934084;29;19930;-87
2022/08/13 09:43:22;;;;;;;;;;;49.60;13.10;;;;;;4932044;29;19918;-88
2022/08/13 09:45:48;;;;;;;;;;;49.30;13.20;;;;;;4915949;29;19923;-88
2022/08/13 09:48:15;;;;;;;;;;;49.00;13.30;;;;;;4931831;29;19922;-86
2022/08/13 09:50:41;;;;;;;;;;;48.90;13.40;;;;;;4930214;29;19923;-88
2022/08/13 09:53:07;;;;;;;;;;;48.90;13.40;;;;;;4916476;29;19926;-89
2022/08/13 09:55:33;;;;;;;;;;;49.00;13.50;;;;;;4932538;29;19922;-88
2022/08/13 09:57:59;;;;;;;;;;;49.10;13.40;;;;;;4916175;29;20347;-88
2022/08/13 10:00:28;;;;;;;;;;;49.10;13.40;;;;;;4931131;29;19930;-87
2022/08/13 10:02:57;;;;;;;;;;;49.10;13.40;;;;;;4930241;29;19923;-87
2022/08/13 10:05:23;;;;;;;;;;;49.00;13.30;;;;;;4925553;29;19965;-90
2022/08/13 10:07:48;;;;;;;;;;;49.10;13.50;;;;;;4932762;29;19947;-88
2022/08/13 10:10:14;;;;;;;;;;;49.30;13.20;;;;;;4927416;29;19919;-88
2022/08/13 10:12:40;;;;;;;;;;;49.40;13.10;;;;;;4911470;29;19927;-88
2022/08/13 10:15:08;;;;;;;;;;;49.50;13.20;;;;;;4919141;29;19933;-89
2022/08/13 10:17:45;;;;;;;;;;;49.50;13.10;;;;;;4923157;29;19922;-88
2022/08/13 10:20:11;;;;;;;;;;;49.70;13.20;;;;;;4931983;29;19999;-88
2022/08/13 10:22:36;;;;;;;;;;;49.90;12.80;;;;;;4929729;29;20013;-88
2022/08/13 10:25:02;;;;;;;;;;;49.90;12.50;;;;;;4932399;29;20014;-87
2022/08/13 10:27:27;;;;;;;;;;;49.20;12.60;;;;;;4930042;29;19958;-86
2022/08/13 10:29:53;;;;;;;;;;;49.00;12.80;;;;;;4934622;29;19922;-88
2022/08/13 10:32:21;;;;;;;;;;;48.30;12.90;;;;;;4914696;29;20430;-89
2022/08/13 10:34:46;;;;;;;;;;;47.40;13.40;;;;;;4925388;29;19927;-86
2022/08/13 10:37:15;;;;;;;;;;;46.90;13.80;;;;;;4929600;29;19922;-87
2022/08/13 10:39:41;;;;;;;;;;;46.20;14.00;;;;;;4925964;29;19922;-87
2022/08/13 10:42:06;;;;;;;;;;;45.60;14.40;;;;;;4936662;29;19984;-89
2022/08/13 10:44:32;;;;;;;;;;;45.40;14.80;;;;;;4922503;29;19923;-88
2022/08/13 10:46:59;;;;;;;;;;;45.50;14.90;;;;;;4932864;29;19923;-87
2022/08/13 10:49:24;;;;;;;;;;;45.50;14.80;;;;;;4931930;29;19930;-88
2022/08/13 10:51:50;;;;;;;;;;;45.40;14.70;;;;;;4935086;29;20283;-89
2022/08/13 10:54:15;;;;;;;;;;;44.90;14.70;;;;;;4936881;29;19927;-86
2022/08/13 10:56:41;;;;;;;;;;;44.40;15.00;;;;;;4916684;29;19914;-86
2022/08/13 10:59:07;;;;;;;;;;;44.70;15.10;;;;;;4931537;29;19965;-86
2022/08/13 11:01:32;;;;;;;;;;;45.00;14.80;;;;;;4931168;29;20022;-85
2022/08/13 11:04:01;;;;;;;;;;;45.30;14.40;;;;;;4933432;29;19939;-86
2022/08/13 11:06:27;;;;;;;;;;;45.40;14.20;;;;;;4916472;29;19978;-87
2022/08/13 11:08:54;;;;;;;;;;;45.60;14.30;;;;;;4919180;29;19953;-87
2022/08/13 11:11:21;;;;;;;;;;;45.80;14.30;;;;;;4917118;29;19930;-86
2022/08/13 11:13:46;;;;;;;;;;;46.00;14.30;;;;;;4934650;29;20688;-86
2022/08/13 11:18:58;;;;;;;;;;;46.30;13.80;;;;;;4923290;29;20387;-86
2022/08/13 11:21:24;;;;;;;;;;;46.30;13.70;;;;;;4919511;29;19922;-88
2022/08/13 11:23:51;;;;;;;;;;;46.30;13.50;;;;;;4901650;29;20022;-86
2022/08/13 11:26:21;;;;;;;;;;;46.20;13.60;;;;;;4901929;29;19925;-89
2022/08/13 11:28:50;;;;;;;;;;;46.10;13.50;;;;;;4930705;29;19939;-90
2022/08/13 11:31:15;;;;;;;;;;;45.80;13.70;;;;;;4902021;29;19915;-86
2022/08/13 11:33:41;;;;;;;;;;;45.70;13.80;;;;;;4922595;29;20582;-87
2022/08/13 11:36:07;;;;;;;;;;;45.90;13.80;;;;;;4932723;29;19941;-87
2022/08/13 11:38:32;;;;;;;;;;;46.40;13.80;;;;;;4927355;29;19986;-87
2022/08/13 11:40:58;;;;;;;;;;;46.50;13.50;;;;;;4917029;29;19919;-88
2022/08/13 11:43:25;;;;;;;;;;;46.00;13.60;;;;;;4927244;29;19966;-87
2022/08/13 11:45:50;;;;;;;;;;;45.70;13.60;;;;;;4935388;29;19915;-86
2022/08/13 11:48:16;;;;;;;;;;;45.80;13.60;;;;;;4932934;29;19998;-87
2022/08/13 11:50:42;;;;;;;;;;;45.80;13.70;;;;;;4934205;29;20376;-86
2022/08/13 11:53:07;;;;;;;;;;;46.20;13.80;;;;;;4918398;29;19978;-84
2022/08/13 11:55:33;;;;;;;;;;;46.30;13.60;;;;;;4930031;29;19915;-86
2022/08/13 11:57:59;;;;;;;;;;;46.10;13.70;;;;;;4915273;29;19919;-86
2022/08/13 12:00:26;;;;;;;;;;;46.30;13.50;;;;;;4918417;29;19930;-85
2022/08/13 12:02:52;;;;;;;;;;;46.20;13.40;;;;;;4940692;29;19922;-86
2022/08/13 12:05:17;;;;;;;;;;;46.00;13.40;;;;;;4937591;29;19965;-86
2022/08/13 12:07:43;;;;;;;;;;;45.60;13.60;;;;;;4923370;29;19926;-86
2022/08/13 12:10:08;;;;;;;;;;;45.30;13.80;;;;;;4918409;29;19922;-87
2022/08/13 12:12:34;;;;;;;;;;;45.00;13.90;;;;;;4926643;29;20402;-87
2022/08/13 12:14:59;;;;;;;;;;;44.50;14.10;;;;;;4937296;29;19915;-87
2022/08/13 12:17:27;;;;;;;;;;;44.30;14.40;;;;;;4920531;29;20073;-87
2022/08/13 12:19:52;;;;;;;;;;;44.30;14.60;;;;;;4937799;29;19921;-87
2022/08/13 12:22:18;;;;;;;;;;;44.70;14.50;;;;;;4940272;29;20015;-86
2022/08/13 12:24:43;;;;;;;;;;;45.00;14.30;;;;;;4936739;29;19931;-86
2022/08/13 12:27:09;;;;;;;;;;;45.20;13.90;;;;;;4938073;29;19923;-86
2022/08/13 12:29:35;;;;;;;;;;;45.30;13.90;;;;;;4936942;29;19919;-87
2022/08/13 12:32:00;;;;;;;;;;;45.30;13.80;;;;;;4936000;29;19918;-87
2022/08/13 12:34:25;;;;;;;;;;;45.30;13.80;;;;;;4936266;29;20356;-86
2022/08/13 12:36:51;;;;;;;;;;;45.60;13.90;;;;;;4934358;29;19985;-88
2022/08/13 12:39:16;;;;;;;;;;;45.70;13.80;;;;;;4921068;29;19985;-87
2022/08/13 12:41:42;;;;;;;;;;;45.60;13.80;;;;;;4936917;29;20025;-87
2022/08/13 12:44:08;;;;;;;;;;;45.50;14.10;;;;;;4921576;29;19971;-86
2022/08/13 12:46:34;;;;;;;;;;;45.30;14.10;;;;;;4921582;29;19926;-87
2022/08/13 12:49:00;;;;;;;;;;;45.00;14.10;;;;;;4914783;29;20390;-87
2022/08/13 12:51:25;;;;;;;;;;;44.80;14.30;;;;;;4921211;29;19922;-86
2022/08/13 12:53:51;;;;;;;;;;;44.70;14.30;;;;;;4937211;29;19953;-87
2022/08/13 12:56:16;;;;;;;;;;;44.30;14.30;;;;;;4936682;29;20068;-86
2022/08/13 12:58:41;;;;;;;;;;;44.20;14.60;;;;;;4946614;29;19969;-86
2022/08/13 13:01:07;;;;;;;;;;;44.10;14.60;;;;;;4932023;29;19919;-86
2022/08/13 13:03:33;;;;;;;;;;;43.70;14.70;;;;;;4932791;29;20026;-86
2022/08/13 13:05:58;;;;;;;;;;;43.30;14.90;;;;;;4933568;29;19950;-86
2022/08/13 13:08:28;;;;;;;;;;;43.20;15.00;;;;;;4932059;29;19927;-87
2022/08/13 13:10:55;;;;;;;;;;;43.10;15.20;;;;;;4918703;29;19918;-87
2022/08/13 13:13:22;;;;;;;;;;;43.20;15.20;;;;;;4937660;29;20490;-86
2022/08/13 13:15:48;;;;;;;;;;;43.10;15.00;;;;;;4918891;29;19919;-85
2022/08/13 13:18:18;;;;;;;;;;;42.80;15.10;;;;;;4931764;29;20454;-85
2022/08/13 13:20:45;;;;;;;;;;;42.60;15.40;;;;;;4931362;29;19919;-84
2022/08/13 13:23:12;;;;;;;;;;;42.30;15.50;;;;;;4913900;29;20390;-85
2022/08/13 13:25:40;;;;;;;;;;;42.10;15.60;;;;;;4928242;29;20347;-86
2022/08/13 13:28:07;;;;;;;;;;;41.80;15.70;;;;;;4915717;29;20372;-86
2022/08/13 13:30:33;;;;;;;;;;;41.50;16.00;;;;;;4916703;29;20035;-84
2022/08/13 13:32:59;;;;;;;;;;;41.30;16.30;;;;;;4929839;29;19927;-85
2022/08/13 13:35:24;;;;;;;;;;;41.20;16.40;;;;;;4916325;29;19926;-85
2022/08/13 13:37:52;;;;;;;;;;;41.10;16.70;;;;;;4940002;29;19966;-86
2022/08/13 13:40:19;;;;;;;;;;;40.70;17.10;;;;;;4938436;29;19915;-86
2022/08/13 13:42:45;;;;;;;;;;;40.60;17.30;;;;;;4922236;29;19919;-86
2022/08/13 13:45:10;;;;;;;;;;;40.50;17.60;;;;;;4912543;29;19922;-86
2022/08/13 13:47:37;;;;;;;;;;;40.40;17.70;;;;;;4927161;29;19930;-85
2022/08/13 13:50:04;;;;;;;;;;;40.30;17.90;;;;;;4937624;29;19919;-86
2022/08/13 13:52:30;;;;;;;;;;;40.20;18.20;;;;;;4904225;29;19949;-85
2022/08/13 13:54:56;;;;;;;;;;;40.00;18.20;;;;;;4933830;29;19919;-86
2022/08/13 13:57:21;;;;;;;;;;;39.80;18.30;;;;;;4935676;29;19972;-85
2022/08/13 13:59:47;;;;;;;;;;;39.80;18.30;;;;;;4933155;29;20387;-84
2022/08/13 14:02:13;;;;;;;;;;;39.80;18.40;;;;;;4943213;29;20060;-86
2022/08/13 14:04:40;;;;;;;;;;;39.70;18.50;;;;;;4902258;29;19923;-86
2022/08/13 14:07:06;;;;;;;;;;;39.70;18.60;;;;;;4919205;29;19922;-85
2022/08/13 14:09:32;;;;;;;;;;;39.40;18.70;;;;;;4932823;29;20038;-85
2022/08/13 14:11:59;;;;;;;;;;;39.30;18.80;;;;;;4917082;29;19915;-85
2022/08/13 14:14:24;;;;;;;;;;;39.20;19.10;;;;;;4918009;29;19923;-85
2022/08/13 14:16:52;;;;;;;;;;;39.20;19.20;;;;;;4938192;29;19918;-85
2022/08/13 14:19:19;;;;;;;;;;;39.30;19.20;;;;;;4912954;29;20387;-84
2022/08/13 14:21:46;;;;;;;;;;;39.20;19.30;;;;;;4934997;29;19934;-85
2022/08/13 14:24:11;;;;;;;;;;;39.20;19.40;;;;;;4930883;29;19926;-86
2022/08/13 14:26:38;;;;;;;;;;;39.10;19.60;;;;;;4921059;29;19914;-87
2022/08/13 14:29:04;;;;;;;;;;;38.90;19.60;;;;;;4918750;29;20005;-86
2022/08/13 14:31:29;;;;;;;;;;;38.70;19.70;;;;;;4932278;29;19965;-85
2022/08/13 14:33:55;;;;;;;;;;;38.40;20.00;;;;;;4918045;29;19954;-86
2022/08/13 14:36:24;;;;;;;;;;;38.30;20.10;;;;;;4915681;29;19915;-87